createdAt,value
2022-08-17T00:00:43.005Z,64.24
2022-08-17T00:03:21.024Z,63.84
2022-08-17T00:06:12.339Z,63.78
2022-08-17T00:08:45.455Z,63.79
2022-08-17T00:11:19.561Z,63.68
2022-08-17T00:13:54.006Z,64.06
2022-08-17T00:16:57.094Z,64.44
2022-08-17T00:19:23.652Z,64.14
2022-08-17T00:22:31.451Z,63.79
2022-08-17T00:24:44.528Z,63.38
2022-08-17T00:27:12.289Z,62.67
2022-08-17T00:29:40.068Z,62.29
2022-08-17T00:33:12.481Z,62.36
2022-08-17T00:34:55.891Z,62.57
2022-08-17T00:37:23.792Z,63.12
2022-08-17T00:39:51.609Z,63.51
2022-08-17T00:42:23.244Z,63.46
2022-08-17T00:44:52.464Z,63.45
2022-08-17T00:47:20.234Z,63.67
2022-08-17T00:49:48.133Z,63.85
2022-08-17T00:52:21.877Z,64.13
2022-08-17T00:54:55.263Z,64.33
2022-08-17T00:57:36.784Z,64.59
2022-08-17T01:00:32.047Z,64.96
2022-08-17T01:03:12.120Z,64.80
2022-08-17T01:05:42.589Z,64.55
2022-08-17T01:08:15.430Z,64.19
2022-08-17T01:10:57.263Z,63.73
2022-08-17T01:13:40.725Z,63.82
2022-08-17T01:16:26.303Z,64.04
2022-08-17T01:19:02.302Z,64.04
2022-08-17T01:21:58.265Z,63.48
2022-08-17T01:24:28.100Z,63.20
2022-08-17T01:26:56.588Z,63.10
2022-08-17T01:29:26.735Z,63.06
2022-08-17T01:32:00.239Z,62.78
2022-08-17T01:34:42.394Z,62.97
2022-08-17T01:37:14.481Z,63.15
2022-08-17T01:39:54.238Z,63.70
2022-08-17T01:42:58.801Z,63.84
2022-08-17T01:45:32.348Z,64.00
2022-08-17T01:48:01.114Z,64.47
2022-08-17T01:50:34.980Z,64.77
2022-08-17T01:53:10.813Z,64.64
2022-08-17T01:55:54.561Z,64.64
2022-08-17T01:58:23.357Z,64.49
2022-08-17T02:01:00.196Z,64.03
2022-08-17T02:03:31.468Z,63.83
2022-08-17T02:05:59.447Z,63.57
2022-08-17T02:08:37.036Z,63.49
2022-08-17T02:11:17.141Z,63.25
2022-08-17T02:13:48.692Z,63.28
2022-08-17T02:16:25.714Z,63.71
2022-08-17T02:18:53.479Z,63.69
2022-08-17T02:21:21.258Z,62.74
2022-08-17T02:23:50.590Z,62.61
2022-08-17T02:26:23.915Z,62.98
2022-08-17T02:28:55.025Z,63.20
2022-08-17T02:31:22.893Z,62.87
2022-08-17T02:34:00.435Z,62.64
2022-08-17T02:36:35.506Z,62.63
2022-08-17T02:39:07.167Z,63.31
2022-08-17T02:41:36.676Z,63.43
2022-08-17T02:44:06.437Z,63.47
2022-08-17T02:46:34.656Z,63.34
2022-08-17T02:49:03.349Z,63.02
2022-08-17T02:51:31.865Z,63.26
2022-08-17T02:54:39.372Z,63.51
2022-08-17T02:56:47.524Z,63.46
2022-08-17T02:59:15.372Z,63.55
2022-08-17T03:01:43.485Z,62.86
2022-08-17T03:04:11.446Z,62.83
2022-08-17T03:06:39.300Z,62.83
2022-08-17T03:09:07.174Z,63.06
2022-08-17T03:11:35.547Z,63.38
2022-08-17T03:14:03.329Z,63.61
2022-08-17T03:16:31.079Z,63.82
2022-08-17T03:18:59.067Z,64.02
2022-08-17T03:21:26.966Z,64.13
2022-08-17T03:23:55.314Z,64.08
2022-08-17T03:26:23.156Z,64.12
2022-08-17T03:28:51.053Z,64.31
2022-08-17T03:31:19.029Z,64.46
2022-08-17T03:33:46.860Z,64.54
2022-08-17T03:36:14.711Z,64.57
2022-08-17T03:38:42.652Z,64.69
2022-08-17T03:41:14.053Z,64.50
2022-08-17T03:43:41.826Z,64.30
2022-08-17T03:46:35.331Z,64.01
2022-08-17T03:49:25.828Z,63.69
2022-08-17T03:52:14.130Z,63.69
2022-08-17T03:55:03.044Z,63.63
2022-08-17T03:57:32.568Z,63.42
2022-08-17T04:00:00.381Z,63.47
2022-08-17T04:02:34.009Z,63.52
2022-08-17T04:05:02.310Z,63.48
2022-08-17T04:07:31.490Z,63.15
2022-08-17T04:10:00.364Z,62.83
2022-08-17T04:12:43.745Z,62.64
2022-08-17T04:15:12.887Z,62.48
2022-08-17T04:17:41.094Z,62.01
2022-08-17T04:20:09.902Z,62.08
2022-08-17T04:22:38.497Z,62.07
2022-08-17T04:25:16.091Z,62.18
2022-08-17T04:27:44.133Z,61.99
2022-08-17T04:30:13.751Z,61.99
2022-08-17T04:33:08.737Z,62.12
2022-08-17T04:35:45.792Z,62.12
2022-08-17T04:38:18.069Z,62.04
2022-08-17T04:41:05.348Z,61.84
2022-08-17T04:43:34.454Z,60.40
2022-08-17T04:46:16.268Z,57.69
2022-08-17T04:48:48.399Z,56.80
2022-08-17T04:51:20.921Z,56.46
2022-08-17T04:53:54.900Z,57.40
2022-08-17T04:56:26.176Z,57.83
2022-08-17T04:59:01.647Z,58.96
2022-08-17T05:01:33.435Z,60.09
2022-08-17T05:04:21.365Z,61.74
2022-08-17T05:06:55.813Z,65.00
2022-08-17T05:09:23.698Z,61.86
2022-08-17T05:11:52.314Z,59.89
2022-08-17T05:14:33.160Z,60.15
2022-08-17T05:17:07.255Z,63.63
2022-08-17T05:19:39.181Z,63.96
2022-08-17T05:22:07.211Z,62.83
2022-08-17T05:24:38.623Z,62.02
2022-08-17T05:27:10.919Z,61.84
2022-08-17T05:29:46.736Z,61.56
2022-08-17T05:32:39.084Z,60.67
2022-08-17T05:35:05.385Z,58.58
2022-08-17T05:37:33.543Z,58.20
2022-08-17T05:40:01.372Z,59.81
2022-08-17T05:42:29.199Z,63.61
2022-08-17T05:44:58.293Z,64.68
2022-08-17T05:47:27.715Z,63.05
2022-08-17T05:49:55.728Z,63.40
2022-08-17T05:52:37.876Z,62.35
2022-08-17T05:55:31.830Z,61.26
2022-08-17T05:58:57.658Z,59.51
2022-08-17T06:01:40.650Z,59.67
2022-08-17T06:04:41.110Z,62.89
2022-08-17T06:07:21.621Z,63.97
2022-08-17T06:10:03.660Z,62.55
2022-08-17T06:12:51.865Z,61.52
2022-08-17T06:15:29.966Z,61.14
2022-08-17T06:18:08.362Z,58.99
2022-08-17T06:21:04.790Z,59.07
2022-08-17T06:23:47.161Z,60.89
2022-08-17T06:26:27.485Z,64.01
2022-08-17T06:29:48.213Z,63.81
2022-08-17T06:32:17.311Z,62.55
2022-08-17T06:34:47.301Z,58.76
2022-08-17T06:37:59.616Z,57.56
2022-08-17T06:40:45.777Z,58.20
2022-08-17T06:43:39.829Z,59.22
2022-08-17T06:46:27.969Z,59.64
2022-08-17T06:49:11.799Z,60.50
2022-08-17T06:51:48.980Z,61.10
2022-08-17T06:54:38.371Z,61.55
2022-08-17T06:57:31.569Z,63.54
2022-08-17T07:00:17.709Z,61.34
2022-08-17T07:03:23.595Z,58.25
2022-08-17T07:06:02.926Z,58.00
2022-08-17T07:09:02.797Z,57.54
2022-08-17T07:11:48.526Z,59.06
2022-08-17T07:14:39.601Z,59.01
2022-08-17T07:17:17.436Z,60.03
2022-08-17T07:19:49.535Z,59.68
2022-08-17T07:22:54.785Z,59.67
2022-08-17T07:25:30.738Z,59.06
2022-08-17T07:28:07.141Z,58.97
2022-08-17T07:30:52.010Z,59.47
2022-08-17T07:33:28.481Z,59.17
2022-08-17T07:35:59.449Z,58.26
2022-08-17T07:38:30.489Z,57.89
2022-08-17T07:41:02.136Z,57.83
2022-08-17T07:43:39.319Z,57.27
2022-08-17T07:46:50.716Z,57.81
2022-08-17T07:49:35.740Z,57.21
2022-08-17T07:52:48.044Z,56.50
2022-08-17T07:55:00.649Z,57.28
2022-08-17T07:57:36.319Z,54.99
2022-08-17T08:00:23.806Z,54.14
2022-08-17T08:03:11.981Z,54.66
2022-08-17T08:05:57.916Z,55.25
2022-08-17T08:08:35.648Z,55.40
2022-08-17T08:11:07.905Z,55.25
2022-08-17T08:13:42.851Z,55.65
2022-08-17T08:16:29.879Z,54.87
2022-08-17T08:19:02.404Z,55.35
2022-08-17T08:21:36.872Z,54.53
2022-08-17T08:24:16.514Z,54.27
2022-08-17T08:26:58.697Z,53.89
2022-08-17T08:29:38.265Z,53.87
2022-08-17T08:32:50.300Z,51.92
2022-08-17T08:35:50.547Z,52.18
2022-08-17T08:38:58.290Z,52.38
2022-08-17T08:41:57.627Z,53.03
2022-08-17T08:45:00.351Z,52.99
2022-08-17T08:47:44.222Z,53.52
2022-08-17T08:51:06.032Z,53.03
2022-08-17T08:54:14.788Z,53.53
2022-08-17T08:57:29.038Z,54.22
2022-08-17T09:00:14.935Z,54.11
2022-08-17T09:03:51.811Z,53.87
2022-08-17T09:06:47.020Z,54.32
2022-08-17T09:09:46.905Z,54.80
2022-08-17T09:12:30.206Z,54.28
2022-08-17T09:15:12.739Z,54.48
2022-08-17T09:19:01.609Z,54.83
2022-08-17T09:21:27.732Z,54.94
2022-08-17T09:24:13.289Z,55.13
2022-08-17T09:27:16.434Z,54.98
2022-08-17T09:30:00.883Z,55.02
2022-08-17T09:32:40.415Z,54.65
2022-08-17T09:35:17.420Z,54.47
2022-08-17T09:38:07.903Z,54.90
2022-08-17T09:40:45.148Z,55.26
2022-08-17T09:43:56.579Z,55.39
2022-08-17T09:46:31.148Z,55.23
2022-08-17T09:49:12.822Z,54.68
2022-08-17T09:51:55.387Z,54.28
2022-08-17T09:54:39.023Z,54.58
2022-08-17T09:57:30.208Z,54.34
2022-08-17T10:00:13.785Z,54.67
2022-08-17T10:03:16.576Z,54.83
2022-08-17T10:05:57.013Z,54.78
2022-08-17T10:08:52.677Z,54.70
2022-08-17T10:11:58.359Z,54.55
2022-08-17T10:14:43.869Z,54.74
2022-08-17T10:17:26.287Z,54.63
2022-08-17T10:20:34.055Z,54.50
2022-08-17T10:23:35.919Z,55.01
2022-08-17T10:26:16.939Z,55.16
2022-08-17T10:29:05.345Z,54.78
2022-08-17T10:31:49.883Z,54.96
2022-08-17T10:34:30.031Z,54.78
2022-08-17T10:37:31.756Z,54.84
2022-08-17T10:40:33.085Z,54.88
2022-08-17T10:43:29.596Z,55.31
2022-08-17T10:46:31.282Z,55.33
2022-08-17T10:49:30.636Z,55.04
2022-08-17T10:52:24.883Z,54.59
2022-08-17T10:54:58.756Z,54.47
2022-08-17T11:01:36.531Z,54.61
2022-08-17T11:08:15.108Z,54.44
2022-08-17T11:12:08.900Z,54.78
2022-08-17T11:15:13.373Z,54.47
2022-08-17T11:18:51.010Z,54.18
2022-08-17T11:21:56.310Z,54.14
2022-08-17T11:24:45.561Z,54.19
2022-08-17T11:27:34.572Z,54.07
2022-08-17T11:30:11.366Z,53.66
2022-08-17T11:32:55.220Z,53.64
2022-08-17T11:35:44.851Z,54.03
2022-08-17T11:38:42.329Z,53.31
2022-08-17T11:41:33.872Z,53.53
2022-08-17T11:44:37.862Z,53.95
2022-08-17T11:47:56.955Z,54.13
2022-08-17T11:51:33.943Z,54.15
2022-08-17T11:57:21.671Z,53.52
2022-08-17T12:00:22.661Z,52.90
2022-08-17T12:03:25.101Z,52.51
2022-08-17T12:06:17.745Z,52.47
2022-08-17T12:09:00.340Z,52.35
2022-08-17T12:12:10.927Z,52.50
2022-08-17T12:15:09.128Z,52.13
2022-08-17T12:17:40.118Z,51.71
2022-08-17T12:20:21.583Z,52.24
2022-08-17T12:23:22.474Z,51.68
2022-08-17T12:26:30.490Z,51.29
2022-08-17T12:29:18.306Z,51.19
2022-08-17T12:32:02.298Z,51.30
2022-08-17T12:34:43.467Z,51.04
2022-08-17T12:37:21.260Z,51.72
2022-08-17T12:40:00.025Z,52.12
2022-08-17T12:42:37.983Z,52.50
2022-08-17T12:45:26.438Z,52.19
2022-08-17T12:48:09.288Z,51.64
2022-08-17T12:50:46.011Z,51.78
2022-08-17T12:53:27.537Z,51.85
2022-08-17T12:55:59.151Z,50.87
2022-08-17T12:58:33.563Z,50.02
2022-08-17T13:01:09.694Z,49.93
2022-08-17T13:03:46.322Z,50.65
2022-08-17T13:06:35.479Z,50.79
2022-08-17T13:09:36.100Z,50.71
2022-08-17T13:12:08.804Z,51.23
2022-08-17T13:14:36.826Z,51.86
2022-08-17T13:17:11.151Z,52.02
2022-08-17T13:19:50.029Z,51.56
2022-08-17T13:22:25.130Z,51.70
2022-08-17T13:25:05.530Z,51.95
2022-08-17T13:27:34.212Z,51.79
2022-08-17T13:30:11.879Z,51.89
2022-08-17T13:32:47.517Z,51.15
2022-08-17T13:35:40.616Z,51.50
2022-08-17T13:38:45.735Z,52.01
2022-08-17T13:41:36.162Z,52.26
2022-08-17T13:44:32.872Z,52.50
2022-08-17T13:47:02.984Z,52.76
2022-08-17T13:49:41.608Z,52.93
2022-08-17T13:52:40.810Z,53.05
2022-08-17T13:55:22.222Z,53.29
2022-08-17T13:58:06.452Z,53.65
2022-08-17T14:00:37.070Z,53.96
2022-08-17T14:03:06.147Z,54.01
2022-08-17T14:05:37.439Z,54.31
2022-08-17T14:08:07.320Z,54.60
2022-08-17T14:10:36.821Z,54.82
2022-08-17T14:13:10.515Z,54.97
2022-08-17T14:15:54.830Z,54.75
2022-08-17T14:18:55.658Z,54.81
2022-08-17T14:21:15.352Z,55.09
2022-08-17T14:23:53.815Z,55.33
2022-08-17T14:26:23.417Z,55.47
2022-08-17T14:28:57.174Z,55.65
2022-08-17T14:31:43.082Z,55.87
2022-08-17T14:34:25.917Z,56.08
2022-08-17T14:37:00.887Z,56.31
2022-08-17T14:39:33.984Z,56.40
2022-08-17T14:42:31.194Z,56.19
2022-08-17T14:45:31.724Z,56.43
2022-08-17T14:48:12.087Z,56.48
2022-08-17T14:50:43.185Z,56.32
2022-08-17T14:53:17.347Z,56.74
2022-08-17T14:55:47.008Z,56.93
2022-08-17T14:58:17.710Z,57.21
2022-08-17T15:01:09.199Z,57.19
2022-08-17T15:03:45.107Z,57.11
2022-08-17T15:06:16.569Z,57.11
2022-08-17T15:08:45.269Z,56.90
2022-08-17T15:11:14.860Z,56.94
2022-08-17T15:13:53.024Z,56.79
2022-08-17T15:16:21.630Z,56.70
2022-08-17T15:18:50.439Z,56.69
2022-08-17T15:21:18.921Z,56.84
2022-08-17T15:23:46.844Z,56.98
2022-08-17T15:26:14.818Z,56.91
2022-08-17T15:28:42.722Z,56.92
2022-08-17T15:31:10.676Z,57.01
2022-08-17T15:33:38.518Z,57.19
2022-08-17T15:36:08.432Z,57.39
2022-08-17T15:38:39.722Z,57.41
2022-08-17T15:41:15.168Z,57.51
2022-08-17T15:43:45.933Z,57.61
2022-08-17T15:46:24.028Z,57.36
2022-08-17T15:48:59.295Z,57.50
2022-08-17T15:51:32.395Z,57.79
2022-08-17T15:54:19.377Z,57.95
2022-08-17T15:56:51.110Z,57.90
2022-08-17T15:59:19.554Z,57.85
2022-08-17T16:03:15.925Z,57.70
2022-08-17T16:04:35.453Z,57.97
2022-08-17T16:07:06.445Z,58.50
2022-08-17T16:09:34.358Z,58.87
2022-08-17T16:12:28.396Z,59.13
2022-08-17T16:14:57.530Z,59.53
2022-08-17T16:17:38.898Z,59.98
2022-08-17T16:20:19.525Z,59.81
2022-08-17T16:22:50.894Z,59.75
2022-08-17T16:25:38.801Z,60.13
2022-08-17T16:28:19.506Z,60.39
2022-08-17T16:30:47.442Z,60.54
2022-08-17T16:33:16.931Z,60.83
2022-08-17T16:35:47.337Z,61.29
2022-08-17T16:38:15.159Z,61.63
2022-08-17T16:40:43.069Z,64.33
2022-08-17T16:43:12.344Z,64.75
2022-08-17T16:45:41.018Z,60.11
2022-08-17T16:48:10.288Z,56.92
2022-08-17T16:50:59.974Z,56.67
2022-08-17T16:53:57.849Z,56.78
2022-08-17T16:56:37.777Z,57.22
2022-08-17T16:59:30.840Z,57.53
2022-08-17T17:02:32.444Z,58.14
2022-08-17T17:05:39.473Z,58.68
2022-08-17T17:08:48.535Z,58.76
2022-08-17T17:11:31.584Z,58.93
2022-08-17T17:14:05.701Z,59.29
2022-08-17T17:17:35.244Z,59.66
2022-08-17T17:20:19.199Z,59.91
2022-08-17T17:22:59.746Z,60.57
2022-08-17T17:25:39.829Z,61.06
2022-08-17T17:28:35.610Z,61.42
2022-08-17T17:31:15.690Z,64.30
2022-08-17T17:33:59.339Z,62.47
2022-08-17T17:36:54.331Z,60.43
2022-08-17T17:40:04.098Z,59.19
2022-08-17T17:42:46.822Z,60.36
2022-08-17T17:45:54.911Z,64.47
2022-08-17T17:49:05.656Z,65.75
2022-08-17T18:04:24.677Z,58.68
2022-08-17T18:07:50.590Z,59.55
2022-08-17T18:11:38.453Z,65.10
2022-08-17T18:15:36.521Z,65.34
2022-08-17T18:18:56.866Z,64.87
2022-08-17T18:21:50.164Z,64.17
2022-08-17T18:24:57.725Z,63.34
2022-08-17T18:27:54.894Z,62.55
2022-08-17T18:30:31.485Z,62.62
2022-08-17T18:33:29.577Z,61.24
2022-08-17T18:36:26.391Z,62.30
2022-08-17T18:39:43.047Z,63.10
2022-08-17T18:42:39.011Z,62.61
2022-08-17T18:45:55.096Z,63.35
2022-08-17T18:49:32.796Z,64.02
2022-08-17T18:52:50.015Z,63.71
2022-08-17T18:58:54.604Z,64.24
2022-08-17T19:05:40.964Z,65.75
2022-08-17T19:08:48.184Z,65.81
2022-08-17T19:11:38.071Z,66.18
2022-08-17T19:14:25.681Z,65.86
2022-08-17T19:17:22.705Z,65.79
2022-08-17T19:20:07.552Z,66.16
2022-08-17T19:23:14.327Z,66.41
2022-08-17T19:25:54.167Z,66.64
2022-08-17T19:28:30.003Z,66.89
2022-08-17T19:31:17.328Z,67.03
2022-08-17T19:33:54.396Z,66.96
2022-08-17T19:36:57.130Z,66.73
2022-08-17T19:39:45.358Z,66.59
2022-08-17T19:42:25.461Z,66.28
2022-08-17T19:45:32.893Z,66.39
2022-08-17T19:48:39.728Z,66.12
2022-08-17T19:51:18.539Z,65.49
2022-08-17T19:54:18.837Z,65.35
2022-08-17T19:57:08.619Z,64.66
2022-08-17T19:59:54.557Z,64.12
2022-08-17T20:02:33.211Z,64.44
2022-08-17T20:05:15.670Z,65.09
2022-08-17T20:08:30.329Z,66.17
2022-08-17T20:11:28.181Z,66.18
2022-08-17T20:14:13.516Z,66.04
2022-08-17T20:16:42.570Z,65.81
2022-08-17T20:19:29.895Z,65.23
2022-08-17T20:22:15.767Z,64.62
2022-08-17T20:25:30.573Z,65.02
2022-08-17T20:28:16.781Z,65.18
2022-08-17T20:30:44.990Z,65.38
2022-08-17T20:33:33.171Z,65.99
2022-08-17T20:36:24.695Z,66.08
2022-08-17T20:38:58.799Z,65.80
2022-08-17T20:41:30.857Z,65.57
2022-08-17T20:43:59.267Z,65.17
2022-08-17T20:46:55.409Z,64.96
2022-08-17T20:49:49.505Z,65.30
2022-08-17T20:52:36.267Z,64.83
2022-08-17T20:55:07.409Z,65.06
2022-08-17T20:57:35.500Z,65.16
2022-08-17T21:00:32.349Z,65.51
2022-08-17T21:03:22.802Z,65.63
2022-08-17T21:06:03.406Z,66.11
2022-08-17T21:09:12.885Z,66.45
2022-08-17T21:12:04.147Z,66.77
2022-08-17T21:15:03.870Z,66.97
2022-08-17T21:17:47.165Z,67.62
2022-08-17T21:20:57.588Z,67.87
2022-08-17T21:23:52.001Z,67.42
2022-08-17T21:26:32.564Z,66.57
2022-08-17T21:29:32.465Z,66.54
2022-08-17T21:32:01.812Z,66.32
2022-08-17T21:34:34.899Z,67.11
2022-08-17T21:37:23.402Z,67.03
2022-08-17T21:40:01.346Z,66.59
2022-08-17T21:42:34.600Z,66.17
2022-08-17T21:45:35.510Z,65.69
2022-08-17T21:48:21.896Z,65.24
2022-08-17T21:51:10.579Z,64.84
2022-08-17T21:53:56.210Z,64.65
2022-08-17T21:56:45.272Z,63.96
2022-08-17T21:59:21.911Z,63.90
2022-08-17T22:02:25.512Z,64.32
2022-08-17T22:05:01.732Z,64.95
2022-08-17T22:07:50.939Z,65.80
2022-08-17T22:10:37.914Z,66.13
2022-08-17T22:13:18.242Z,65.90
2022-08-17T22:16:15.364Z,65.61
2022-08-17T22:18:58.946Z,65.29
2022-08-17T22:21:27.426Z,65.14
2022-08-17T22:24:20.500Z,64.57
2022-08-17T22:27:05.490Z,64.32
2022-08-17T22:29:57.161Z,63.93
2022-08-17T22:32:42.790Z,63.88
2022-08-17T22:35:32.924Z,63.91
2022-08-17T22:38:19.085Z,63.96
2022-08-17T22:40:54.755Z,64.15
2022-08-17T22:43:28.813Z,64.64
2022-08-17T22:46:00.340Z,64.72
2022-08-17T22:48:31.393Z,64.47
2022-08-17T22:51:25.785Z,64.53
2022-08-17T22:54:18.750Z,64.77
2022-08-17T22:57:19.991Z,64.61
2022-08-17T22:59:54.783Z,64.84
2022-08-17T23:02:51.133Z,64.76
2022-08-17T23:05:24.267Z,65.08
2022-08-17T23:07:53.182Z,64.95
2022-08-17T23:10:21.044Z,64.88
2022-08-17T23:12:48.871Z,64.85
2022-08-17T23:15:19.402Z,64.54
2022-08-17T23:17:47.942Z,64.39
2022-08-17T23:20:17.935Z,63.96
2022-08-17T23:22:51.198Z,64.03
2022-08-17T23:25:33.685Z,64.18
2022-08-17T23:28:05.719Z,64.24
2022-08-17T23:30:41.706Z,64.68
2022-08-17T23:33:26.801Z,65.05
2022-08-17T23:35:54.810Z,64.93
2022-08-17T23:38:22.676Z,64.94
2022-08-17T23:40:50.424Z,64.93
2022-08-17T23:43:25.681Z,64.66
2022-08-17T23:45:59.881Z,64.95
2022-08-17T23:48:36.785Z,65.15
2022-08-17T23:51:14.956Z,65.37
2022-08-17T23:53:48.524Z,65.36
2022-08-17T23:56:18.182Z,65.33
2022-08-17T23:58:46.612Z,65.22
